Time,TemperatureF,DewpointF,PressureIn,WindDirection,WindDirectionDegrees,WindSpeedMPH,WindSpeedGustMPH,Humidity,HourlyPrecipIn,Conditions,Clouds,dailyrainin,SoftwareType,DateUTC
2013-02-27 00:00:00,42.0,30.7,29.14,ENE,67,6.0,6.0,64,0.00,CLR,,0.00,WeatherDisplay:10.37,2013-02-27 06:00:00,
2013-02-27 00:05:00,43.0,31.6,29.14,East,90,3.5,3.5,64,0.00,CLR,,0.00,WeatherDisplay:10.37,2013-02-27 06:05:00,
2013-02-27 00:10:00,42.0,30.7,29.14,ESE,112,2.3,2.3,64,0.00,CLR,,0.00,WeatherDisplay:10.37,2013-02-27 06:10:00,
2013-02-27 00:15:00,42.0,30.7,29.14,East,90,3.5,3.5,64,0.00,CLR,,0.00,WeatherDisplay:10.37,2013-02-27 06:15:00,
2013-02-27 00:20:00,42.0,30.7,29.14,East,90,5.8,5.8,64,0.00,CLR,,0.00,WeatherDisplay:10.37,2013-02-27 06:20:00,
2013-02-27 00:25:00,42.0,30.7,29.15,ENE,67,3.5,3.5,64,0.00,CLR,,0.00,WeatherDisplay:10.37,2013-02-27 06:25:00,
2013-02-27 00:30:00,42.0,30.7,29.15,ENE,67,3.5,3.5,64,0.00,CLR,,0.00,WeatherDisplay:10.37,2013-02-27 06:30:00,
2013-02-27 00:35:00,42.0,31.1,29.15,East,90,5.0,5.0,65,0.00,CLR,,0.00,WeatherDisplay:10.37,2013-02-27 06:35:00,
2013-02-27 00:40:00,41.0,30.1,29.15,ESE,112,5.8,5.8,65,0.00,CLR,,0.00,WeatherDisplay:10.37,2013-02-27 06:40:00,
2013-02-27 00:45:00,42.0,30.7,29.16,East,90,4.0,4.0,64,0.00,CLR,,0.00,WeatherDisplay:10.37,2013-02-27 06:45:00,
2013-02-27 00:50:00,42.0,30.7,29.16,East,90,2.3,2.3,64,0.00,CLR,,0.00,WeatherDisplay:10.37,2013-02-27 06:50:00,
2013-02-27 00:55:00,42.0,31.1,29.16,ESE,112,2.0,2.0,65,0.00,CLR,,0.00,WeatherDisplay:10.37,2013-02-27 06:55:00,
2013-02-27 01:00:00,41.0,30.1,29.16,East,90,5.8,5.8,65,0.00,CLR,,0.00,WeatherDisplay:10.37,2013-02-27 07:00:00,
2013-02-27 01:05:00,41.0,30.1,29.17,ENE,67,2.3,2.3,65,0.00,CLR,,0.00,WeatherDisplay:10.37,2013-02-27 07:05:00,
2013-02-27 01:10:00,41.0,30.1,29.17,ENE,67,3.5,3.5,65,0.00,CLR,,0.00,WeatherDisplay:10.37,2013-02-27 07:10:00,
2013-02-27 01:15:00,41.0,30.5,29.17,ENE,67,2.3,2.3,66,0.00,CLR,,0.00,WeatherDisplay:10.37,2013-02-27 07:15:00,
2013-02-27 01:20:00,41.0,30.5,29.17,East,90,5.8,5.8,66,0.00,CLR,,0.00,WeatherDisplay:10.37,2013-02-27 07:20:00,
2013-02-27 01:25:00,41.0,30.1,29.17,East,90,4.6,4.8,65,0.00,CLR,,0.00,WeatherDisplay:10.37,2013-02-27 07:25:00,
2013-02-27 01:30:00,41.0,30.1,29.17,East,90,3.0,3.0,65,0.00,CLR,,0.00,WeatherDisplay:10.37,2013-02-27 07:30:00,
2013-02-27 01:35:00,41.0,30.5,29.16,ENE,67,3.5,3.5,66,0.00,CLR,,0.00,WeatherDisplay:10.37,2013-02-27 07:35:00,
2013-02-27 01:41:00,41.0,30.5,29.16,ENE,67,3.5,3.5,66,0.00,CLR,,0.00,WeatherDisplay:10.37,2013-02-27 07:41:00,
2013-02-27 01:46:00,40.0,29.6,29.16,ENE,67,4.0,4.0,66,0.00,CLR,,0.00,WeatherDisplay:10.37,2013-02-27 07:46:00,
2013-02-27 01:51:00,40.0,29.9,29.16,NE,45,4.6,4.6,67,0.00,CLR,,0.00,WeatherDisplay:10.37,2013-02-27 07:51:00,
2013-02-27 01:56:00,40.0,29.9,29.16,ENE,67,3.5,3.8,67,0.00,CLR,,0.00,WeatherDisplay:10.37,2013-02-27 07:56:00,
2013-02-27 02:01:00,40.0,29.9,29.15,ENE,67,6.9,6.9,67,0.00,CLR,,0.00,WeatherDisplay:10.37,2013-02-27 08:01:00,
2013-02-27 02:06:00,40.0,29.9,29.15,ENE,67,5.8,5.8,67,0.00,CLR,,0.00,WeatherDisplay:10.37,2013-02-27 08:06:00,
2013-02-27 02:11:00,40.0,29.9,29.15,ENE,67,6.0,6.0,67,0.00,CLR,,0.00,WeatherDisplay:10.37,2013-02-27 08:11:00,
2013-02-27 02:16:00,40.0,30.3,29.15,ENE,67,5.8,5.8,68,0.00,CLR,,0.00,WeatherDisplay:10.37,2013-02-27 08:16:00,
2013-02-27 02:21:00,40.0,30.3,29.15,ENE,67,6.9,6.9,68,0.00,CLR,,0.00,WeatherDisplay:10.37,2013-02-27 08:21:00,
2013-02-27 02:26:00,40.0,30.6,29.15,East,90,7.0,7.0,69,0.00,CLR,,0.00,WeatherDisplay:10.37,2013-02-27 08:26:00,
2013-02-27 02:31:00,40.0,30.3,29.15,NE,45,3.5,3.5,68,0.00,CLR,,0.00,WeatherDisplay:10.37,2013-02-27 08:31:00,
2013-02-27 02:36:00,39.0,29.7,29.14,East,90,3.5,3.5,69,0.00,CLR,,0.00,WeatherDisplay:10.37,2013-02-27 08:36:00,
2013-02-27 02:41:00,39.0,30.0,29.14,NE,45,6.0,6.0,70,0.00,CLR,,0.00,WeatherDisplay:10.37,2013-02-27 08:41:00,
2013-02-27 02:46:00,39.0,30.0,29.14,NNE,22,3.5,3.5,70,0.00,CLR,,0.00,WeatherDisplay:10.37,2013-02-27 08:46:00,
2013-02-27 02:51:00,39.0,29.7,29.14,ENE,67,7.0,7.0,69,0.00,CLR,,0.00,WeatherDisplay:10.37,2013-02-27 08:51:00,
2013-02-27 02:56:00,39.0,29.7,29.14,East,90,8.0,8.0,69,0.00,CLR,,0.00,WeatherDisplay:10.37,2013-02-27 08:56:00,
2013-02-27 03:01:00,39.0,30.0,29.13,East,90,10.4,10.4,70,0.00,CLR,,0.00,WeatherDisplay:10.37,2013-02-27 09:01:00,
2013-02-27 03:06:00,39.0,30.0,29.13,East,90,6.9,6.9,70,0.00,CLR,,0.00,WeatherDisplay:10.37,2013-02-27 09:06:00,
2013-02-27 03:11:00,39.0,30.0,29.14,ENE,67,5.8,5.8,70,0.00,CLR,,0.00,WeatherDisplay:10.37,2013-02-27 09:11:00,
2013-02-27 03:16:00,38.0,29.4,29.14,East,90,4.6,4.6,71,0.00,CLR,,0.00,WeatherDisplay:10.37,2013-02-27 09:16:00,
2013-02-27 03:21:00,38.0,29.4,29.15,North,360,4.6,4.6,71,0.00,CLR,,0.00,WeatherDisplay:10.37,2013-02-27 09:21:00,
2013-02-27 03:26:00,38.0,29.4,29.15,North,360,2.3,2.3,71,0.00,CLR,,0.00,WeatherDisplay:10.37,2013-02-27 09:26:00,
2013-02-27 03:31:00,37.0,28.8,29.16,NNW,337,5.0,5.0,72,0.00,CLR,,0.00,WeatherDisplay:10.37,2013-02-27 09:31:00,
2013-02-27 03:36:00,36.0,28.5,29.16,North,360,1.2,1.2,74,0.00,CLR,,0.00,WeatherDisplay:10.37,2013-02-27 09:36:00,
2013-02-27 03:41:00,36.0,28.8,29.17,NW,315,2.3,2.3,75,0.00,CLR,,0.00,WeatherDisplay:10.37,2013-02-27 09:41:00,
2013-02-27 03:46:00,36.0,29.2,29.17,NW,315,1.2,1.2,76,0.00,CLR,,0.00,WeatherDisplay:10.37,2013-02-27 09:46:00,
2013-02-27 03:51:00,36.0,29.2,29.17,NW,315,4.0,4.0,76,0.00,CLR,,0.00,WeatherDisplay:10.37,2013-02-27 09:51:00,
2013-02-27 03:56:00,36.0,29.5,29.17,WNW,292,4.0,4.0,77,0.00,CLR,,0.00,WeatherDisplay:10.37,2013-02-27 09:56:00,
2013-02-27 04:01:00,35.0,28.5,29.17,North,360,3.5,3.5,77,0.00,CLR,,0.00,WeatherDisplay:10.37,2013-02-27 10:01:00,
2013-02-27 04:06:00,35.0,28.5,29.17,North,360,1.2,1.2,77,0.00,CLR,,0.00,WeatherDisplay:10.37,2013-02-27 10:06:00,
2013-02-27 04:11:00,35.0,29.1,29.17,NNW,337,2.3,2.3,79,0.00,CLR,,0.00,WeatherDisplay:10.37,2013-02-27 10:11:00,
2013-02-27 04:16:00,35.0,29.5,29.17,North,360,1.2,1.2,80,0.00,CLR,,0.00,WeatherDisplay:10.37,2013-02-27 10:16:00,
2013-02-27 04:21:00,34.0,28.5,29.17,NNW,337,4.0,4.0,80,0.00,CLR,,0.00,WeatherDisplay:10.37,2013-02-27 10:21:00,
2013-02-27 04:26:00,34.0,28.2,29.17,North,360,0.0,0.0,79,0.00,CLR,,0.00,WeatherDisplay:10.37,2013-02-27 10:26:00,
2013-02-27 04:31:00,33.0,28.1,29.16,NNE,22,2.3,2.3,82,0.00,CLR,,0.00,WeatherDisplay:10.37,2013-02-27 10:31:00,
2013-02-27 04:37:00,33.0,28.7,29.16,WNW,292,4.0,4.0,84,0.00,CLR,,0.00,WeatherDisplay:10.37,2013-02-27 10:37:00,
2013-02-27 04:42:00,33.0,29.0,29.16,North,360,5.8,5.8,85,0.00,CLR,,0.00,WeatherDisplay:10.37,2013-02-27 10:42:00,
2013-02-27 04:47:00,34.0,30.3,29.16,NW,315,4.6,4.6,86,0.00,CLR,,0.00,WeatherDisplay:10.37,2013-02-27 10:47:00,
2013-02-27 04:52:00,34.0,30.0,29.16,North,360,2.3,2.3,85,0.00,CLR,,0.00,WeatherDisplay:10.37,2013-02-27 10:52:00,
2013-02-27 04:57:00,34.0,30.3,29.16,NW,315,5.8,5.8,86,0.00,CLR,,0.00,WeatherDisplay:10.37,2013-02-27 10:57:00,
2013-02-27 05:02:00,34.0,30.3,29.17,NNW,337,7.0,7.0,86,0.00,CLR,,0.00,WeatherDisplay:10.37,2013-02-27 11:02:00,
2013-02-27 05:07:00,34.0,30.3,29.19,West,270,5.8,5.8,86,0.00,CLR,,0.00,WeatherDisplay:10.37,2013-02-27 11:07:00,
2013-02-27 05:12:00,34.0,30.3,29.19,NW,315,5.8,5.8,86,0.00,CLR,,0.00,WeatherDisplay:10.37,2013-02-27 11:12:00,
2013-02-27 05:17:00,34.0,30.5,29.19,NW,315,6.0,6.0,87,0.00,CLR,,0.00,WeatherDisplay:10.37,2013-02-27 11:17:00,
2013-02-27 05:22:00,34.0,30.5,29.20,NW,315,6.0,6.0,87,0.00,CLR,,0.00,WeatherDisplay:10.37,2013-02-27 11:22:00,
2013-02-27 05:27:00,34.0,30.5,29.21,NW,315,3.5,3.5,87,0.00,CLR,,0.00,WeatherDisplay:10.37,2013-02-27 11:27:00,
2013-02-27 05:32:00,34.0,30.5,29.21,NNE,22,3.5,3.5,87,0.00,CLR,,0.00,WeatherDisplay:10.37,2013-02-27 11:32:00,
2013-02-27 05:37:00,33.0,29.6,29.21,North,360,1.2,0.0,87,0.00,CLR,,0.00,WeatherDisplay:10.37,2013-02-27 11:37:00,
2013-02-27 05:42:00,33.0,29.6,29.22,West,270,3.5,3.5,87,0.00,CLR,,0.00,WeatherDisplay:10.37,2013-02-27 11:42:00,
2013-02-27 05:47:00,33.0,30.1,29.22,NW,315,5.8,5.8,89,0.00,CLR,,0.00,WeatherDisplay:10.37,2013-02-27 11:47:00,
2013-02-27 05:52:00,33.0,30.1,29.22,North,360,2.3,2.3,89,0.00,CLR,,0.00,WeatherDisplay:10.37,2013-02-27 11:52:00,
2013-02-27 05:57:00,33.0,30.1,29.22,West,270,0.0,0.0,89,0.00,CLR,,0.00,WeatherDisplay:10.37,2013-02-27 11:57:00,
2013-02-27 06:02:00,33.0,30.4,29.22,NW,315,3.5,3.5,90,0.00,CLR,,0.00,WeatherDisplay:10.37,2013-02-27 12:02:00,
2013-02-27 06:07:00,33.0,30.7,29.22,WNW,292,4.0,4.0,91,0.00,CLR,,0.00,WeatherDisplay:10.37,2013-02-27 12:07:00,
2013-02-27 06:12:00,33.0,30.7,29.23,NW,315,7.0,7.0,91,0.00,CLR,,0.00,WeatherDisplay:10.37,2013-02-27 12:12:00,
2013-02-27 06:17:00,33.0,30.7,29.23,WSW,247,3.5,3.6,91,0.00,CLR,,0.00,WeatherDisplay:10.37,2013-02-27 12:17:00,
2013-02-27 06:22:00,33.0,30.7,29.23,West,270,4.0,4.0,91,0.00,CLR,,0.00,WeatherDisplay:10.37,2013-02-27 12:22:00,
2013-02-27 06:27:00,33.0,30.7,29.23,NNE,22,3.5,3.5,91,0.00,CLR,,0.00,WeatherDisplay:10.37,2013-02-27 12:27:00,
2013-02-27 06:32:00,33.0,30.7,29.23,WNW,292,6.0,6.0,91,0.00,CLR,,0.00,WeatherDisplay:10.37,2013-02-27 12:32:00,
2013-02-27 06:37:00,33.0,30.9,29.23,West,270,4.6,4.8,92,0.00,CLR,,0.00,WeatherDisplay:10.37,2013-02-27 12:37:00,
2013-02-27 06:42:00,33.0,30.9,29.24,NNW,337,5.8,5.8,92,0.00,CLR,,0.00,WeatherDisplay:10.37,2013-02-27 12:42:00,
2013-02-27 06:47:00,33.0,30.9,29.25,WNW,292,9.2,9.2,92,0.00,CLR,,0.00,WeatherDisplay:10.37,2013-02-27 12:47:00,
2013-02-27 06:52:00,33.0,30.9,29.25,WNW,292,7.0,7.0,92,0.00,CLR,,0.00,WeatherDisplay:10.37,2013-02-27 12:52:00,
2013-02-27 06:57:00,33.0,31.2,29.25,WNW,292,8.1,8.1,93,0.00,CLR,,0.00,WeatherDisplay:10.37,2013-02-27 12:57:00,
2013-02-27 07:03:00,33.0,31.5,29.25,NE,45,6.9,6.9,94,0.00,CLR,,0.00,WeatherDisplay:10.37,2013-02-27 13:03:00,
2013-02-27 07:08:00,33.0,31.5,29.25,NW,315,8.1,8.1,94,0.00,CLR,,0.00,WeatherDisplay:10.37,2013-02-27 13:08:00,
2013-02-27 07:13:00,34.0,32.5,29.25,WNW,292,8.1,8.1,94,0.00,CLR,,0.00,WeatherDisplay:10.37,2013-02-27 13:13:00,
2013-02-27 07:18:00,34.0,32.5,29.26,NE,45,5.0,5.0,94,0.00,CLR,,0.00,WeatherDisplay:10.37,2013-02-27 13:18:00,
2013-02-27 07:23:00,34.0,32.2,29.26,WNW,292,9.2,9.2,93,0.00,CLR,,0.00,WeatherDisplay:10.37,2013-02-27 13:23:00,
2013-02-27 07:28:00,34.0,32.2,29.27,West,270,5.8,5.8,93,0.00,CLR,,0.00,WeatherDisplay:10.37,2013-02-27 13:28:00,
2013-02-27 07:33:00,34.0,32.2,29.27,NW,315,5.8,5.8,93,0.00,CLR,,0.00,WeatherDisplay:10.37,2013-02-27 13:33:00,
2013-02-27 07:38:00,35.0,33.2,29.27,WSW,247,6.9,6.9,93,0.00,CLR,,0.00,WeatherDisplay:10.37,2013-02-27 13:38:00,
2013-02-27 07:43:00,35.0,32.9,29.28,NNE,22,7.0,7.0,92,0.00,CLR,,0.00,WeatherDisplay:10.37,2013-02-27 13:43:00,
2013-02-27 07:48:00,36.0,33.6,29.28,West,270,3.5,3.5,91,0.00,CLR,,0.00,WeatherDisplay:10.37,2013-02-27 13:48:00,
2013-02-27 07:53:00,36.0,33.4,29.29,NNW,337,5.8,5.8,90,0.00,CLR,,0.00,WeatherDisplay:10.37,2013-02-27 13:53:00,
2013-02-27 07:58:00,36.0,33.1,29.29,NW,315,4.0,4.0,89,0.00,CLR,,0.00,WeatherDisplay:10.37,2013-02-27 13:58:00,
2013-02-27 08:03:00,37.0,33.8,29.29,North,360,6.0,6.0,88,0.00,CLR,,0.00,WeatherDisplay:10.37,2013-02-27 14:03:00,
2013-02-27 08:08:00,37.0,33.2,29.29,NE,45,4.6,4.6,86,0.00,CLR,,0.00,WeatherDisplay:10.37,2013-02-27 14:08:00,
2013-02-27 08:13:00,37.0,33.2,29.29,NNE,22,5.8,5.8,86,0.00,CLR,,0.00,WeatherDisplay:10.37,2013-02-27 14:13:00,
2013-02-27 08:18:00,38.0,33.9,29.30,North,360,4.6,4.6,85,0.00,CLR,,0.00,WeatherDisplay:10.37,2013-02-27 14:18:00,
2013-02-27 08:23:00,38.0,33.3,29.30,NNE,22,4.0,4.0,83,0.00,CLR,,0.00,WeatherDisplay:10.37,2013-02-27 14:23:00,
2013-02-27 08:28:00,38.0,33.3,29.30,NNE,22,2.3,2.3,83,0.00,CLR,,0.00,WeatherDisplay:10.37,2013-02-27 14:28:00,
2013-02-27 08:33:00,39.0,34.3,29.30,NNE,22,2.3,2.3,83,0.00,CLR,,0.00,WeatherDisplay:10.37,2013-02-27 14:33:00,
2013-02-27 08:38:00,39.0,34.3,29.29,ENE,67,3.5,3.5,83,0.00,CLR,,0.00,WeatherDisplay:10.37,2013-02-27 14:38:00,
2013-02-27 08:43:00,40.0,34.3,29.30,NNW,337,4.6,4.6,80,0.00,CLR,,0.00,WeatherDisplay:10.37,2013-02-27 14:43:00,
2013-02-27 08:48:00,41.0,33.7,29.31,North,360,1.2,1.2,75,0.00,CLR,,0.00,WeatherDisplay:10.37,2013-02-27 14:48:00,
2013-02-27 08:53:00,42.0,34.0,29.31,NW,315,7.0,7.0,73,0.00,CLR,,0.00,WeatherDisplay:10.37,2013-02-27 14:53:00,
2013-02-27 08:58:00,42.0,33.3,29.32,NW,315,4.0,4.0,71,0.00,CLR,,0.00,WeatherDisplay:10.37,2013-02-27 14:58:00,
2013-02-27 09:03:00,43.0,34.2,29.33,NNE,22,6.9,6.9,71,0.00,CLR,,0.00,WeatherDisplay:10.37,2013-02-27 15:03:00,
2013-02-27 09:08:00,43.0,34.2,29.33,NNW,337,8.1,8.1,71,0.00,CLR,,0.00,WeatherDisplay:10.37,2013-02-27 15:08:00,
2013-02-27 09:13:00,43.0,33.5,29.32,WNW,292,9.2,9.2,69,0.00,CLR,,0.00,WeatherDisplay:10.37,2013-02-27 15:13:00,
2013-02-27 09:18:00,43.0,32.4,29.33,West,270,9.2,9.2,66,0.00,CLR,,0.00,WeatherDisplay:10.37,2013-02-27 15:18:00,
2013-02-27 09:23:00,43.0,32.0,29.33,WNW,292,6.9,6.9,65,0.00,CLR,,0.00,WeatherDisplay:10.37,2013-02-27 15:23:00,
2013-02-27 09:28:00,45.0,33.5,29.33,NW,315,3.5,4.0,64,0.00,CLR,,0.00,WeatherDisplay:10.37,2013-02-27 15:28:00,
2013-02-27 09:33:00,45.0,32.8,29.33,North,360,7.0,7.0,62,0.00,CLR,,0.00,WeatherDisplay:10.37,2013-02-27 15:33:00,
2013-02-27 09:38:00,46.0,32.9,29.33,NNW,337,6.9,6.9,60,0.00,CLR,,0.00,WeatherDisplay:10.37,2013-02-27 15:38:00,
2013-02-27 09:43:00,47.0,33.4,29.34,West,270,6.9,6.9,59,0.00,CLR,,0.00,WeatherDisplay:10.37,2013-02-27 15:43:00,
2013-02-27 09:48:00,47.0,33.0,29.34,WNW,292,11.5,11.5,58,0.00,CLR,,0.00,WeatherDisplay:10.37,2013-02-27 15:48:00,
2013-02-27 09:53:00,47.0,32.5,29.35,NNW,337,16.1,16.1,57,0.00,CLR,,0.00,WeatherDisplay:10.37,2013-02-27 15:53:00,
2013-02-27 09:58:00,47.0,31.7,29.35,NW,315,13.0,13.0,55,0.00,CLR,,0.00,WeatherDisplay:10.37,2013-02-27 15:58:00,
2013-02-27 10:03:00,47.0,31.2,29.35,NW,315,9.2,9.2,54,0.00,CLR,,0.00,WeatherDisplay:10.37,2013-02-27 16:03:00,
2013-02-27 10:08:00,47.0,31.7,29.35,NNW,337,9.2,9.2,55,0.00,CLR,,0.00,WeatherDisplay:10.37,2013-02-27 16:08:00,
2013-02-27 10:13:00,48.0,32.6,29.35,NW,315,10.4,10.4,55,0.00,CLR,,0.00,WeatherDisplay:10.37,2013-02-27 16:13:00,
2013-02-27 10:18:00,48.0,31.2,29.35,NW,315,10.4,10.4,52,0.00,CLR,,0.00,WeatherDisplay:10.37,2013-02-27 16:18:00,
2013-02-27 10:23:00,48.0,30.7,29.36,NW,315,10.4,10.4,51,0.00,CLR,,0.00,WeatherDisplay:10.37,2013-02-27 16:23:00,
2013-02-27 10:28:00,48.0,30.2,29.35,NNW,337,8.1,8.1,50,0.00,CLR,,0.00,WeatherDisplay:10.37,2013-02-27 16:28:00,
2013-02-27 10:33:00,49.0,32.1,29.36,NW,315,12.0,12.0,52,0.00,CLR,,0.00,WeatherDisplay:10.37,2013-02-27 16:33:00,
2013-02-27 10:38:00,49.0,31.2,29.36,NW,315,15.0,15.0,50,0.00,CLR,,0.00,WeatherDisplay:10.37,2013-02-27 16:38:00,
2013-02-27 10:43:00,49.0,31.2,29.36,North,360,11.0,11.0,50,0.00,CLR,,0.00,WeatherDisplay:10.37,2013-02-27 16:43:00,
2013-02-27 10:48:00,50.0,30.5,29.36,WNW,292,12.7,12.7,47,0.00,CLR,,0.00,WeatherDisplay:10.37,2013-02-27 16:48:00,
2013-02-27 10:53:00,50.0,31.1,29.37,NW,315,6.9,6.9,48,0.00,CLR,,0.00,WeatherDisplay:10.37,2013-02-27 16:53:00,
2013-02-27 10:58:00,50.0,29.5,29.37,WNW,292,11.5,11.5,45,0.00,CLR,,0.00,WeatherDisplay:10.37,2013-02-27 16:58:00,
2013-02-27 11:03:00,50.0,30.5,29.37,NW,315,16.1,16.1,47,0.00,CLR,,0.00,WeatherDisplay:10.37,2013-02-27 17:03:00,
2013-02-27 11:08:00,50.0,31.1,29.37,NW,315,7.0,7.0,48,0.00,CLR,,0.00,WeatherDisplay:10.37,2013-02-27 17:08:00,
2013-02-27 11:13:00,50.0,28.9,29.38,West,270,11.0,11.0,44,0.00,CLR,,0.00,WeatherDisplay:10.37,2013-02-27 17:13:00,
2013-02-27 11:18:00,50.0,28.4,29.38,West,270,6.0,6.0,43,0.00,CLR,,0.00,WeatherDisplay:10.37,2013-02-27 17:18:00,
2013-02-27 11:23:00,51.0,29.3,29.38,North,360,11.5,11.5,43,0.00,CLR,,0.00,WeatherDisplay:10.37,2013-02-27 17:23:00,
2013-02-27 11:28:00,51.0,28.7,29.38,NW,315,14.0,14.0,42,0.00,CLR,,0.00,WeatherDisplay:10.37,2013-02-27 17:28:00,
2013-02-27 11:33:00,51.0,28.1,29.38,NW,315,13.0,13.0,41,0.00,CLR,,0.00,WeatherDisplay:10.37,2013-02-27 17:33:00,
2013-02-27 11:38:00,51.0,26.3,29.38,NW,315,9.2,9.2,38,0.00,CLR,,0.00,WeatherDisplay:10.37,2013-02-27 17:38:00,
2013-02-27 11:43:00,52.0,26.5,29.38,NNW,337,15.0,15.0,37,0.00,CLR,,0.00,WeatherDisplay:10.37,2013-02-27 17:43:00,
2013-02-27 11:48:00,52.0,27.1,29.38,NW,315,15.0,15.0,38,0.00,CLR,,0.00,WeatherDisplay:10.37,2013-02-27 17:48:00,
2013-02-27 11:53:00,51.0,26.3,29.38,NNW,337,11.5,11.5,38,0.00,CLR,,0.00,WeatherDisplay:10.37,2013-02-27 17:53:00,
2013-02-27 11:58:00,52.0,27.1,29.38,NNW,337,9.2,9.2,38,0.00,CLR,,0.00,WeatherDisplay:10.37,2013-02-27 17:58:00,
2013-02-27 12:04:00,52.0,27.1,29.38,NW,315,8.1,8.1,38,0.00,CLR,,0.00,WeatherDisplay:10.37,2013-02-27 18:04:00,
2013-02-27 12:09:00,52.0,27.1,29.38,North,360,14.0,14.0,38,0.00,CLR,,0.00,WeatherDisplay:10.37,2013-02-27 18:09:00,
2013-02-27 12:14:00,52.0,27.1,29.38,NNW,337,11.5,11.5,38,0.00,CLR,,0.00,WeatherDisplay:10.37,2013-02-27 18:14:00,
2013-02-27 12:19:00,53.0,28.0,29.38,NW,315,20.0,20.0,38,0.00,CLR,,0.00,WeatherDisplay:10.37,2013-02-27 18:19:00,
2013-02-27 12:24:00,53.0,26.7,29.37,NW,315,10.4,10.4,36,0.00,CLR,,0.00,WeatherDisplay:10.37,2013-02-27 18:24:00,
2013-02-27 12:29:00,53.0,25.3,29.38,NW,315,17.3,17.3,34,0.00,CLR,,0.00,WeatherDisplay:10.37,2013-02-27 18:29:00,
2013-02-27 12:34:00,53.0,23.1,29.38,WNW,292,16.1,16.1,31,0.00,CLR,,0.00,WeatherDisplay:10.37,2013-02-27 18:34:00,
2013-02-27 12:39:00,52.0,22.3,29.38,NW,315,13.0,13.0,31,0.00,CLR,,0.00,WeatherDisplay:10.37,2013-02-27 18:39:00,
2013-02-27 12:44:00,53.0,22.4,29.37,WNW,292,13.8,13.8,30,0.00,CLR,,0.00,WeatherDisplay:10.37,2013-02-27 18:44:00,
2013-02-27 12:49:00,53.0,23.1,29.38,NW,315,15.0,15.0,31,0.00,CLR,,0.00,WeatherDisplay:10.37,2013-02-27 18:49:00,
2013-02-27 12:54:00,53.0,24.6,29.38,WNW,292,12.7,12.7,33,0.00,CLR,,0.00,WeatherDisplay:10.37,2013-02-27 18:54:00,
2013-02-27 12:59:00,54.0,24.0,29.38,West,270,12.0,12.0,31,0.00,CLR,,0.00,WeatherDisplay:10.37,2013-02-27 18:59:00,
2013-02-27 13:04:00,54.0,22.4,29.37,WNW,292,15.0,15.0,29,0.00,CLR,,0.00,WeatherDisplay:10.37,2013-02-27 19:04:00,
2013-02-27 13:09:00,54.0,23.2,29.37,NW,315,15.0,15.0,30,0.00,CLR,,0.00,WeatherDisplay:10.37,2013-02-27 19:09:00,
2013-02-27 13:14:00,54.0,23.2,29.38,WNW,292,11.0,11.0,30,0.00,CLR,,0.00,WeatherDisplay:10.37,2013-02-27 19:14:00,
2013-02-27 13:19:00,54.0,22.4,29.37,North,360,12.7,12.7,29,0.00,CLR,,0.00,WeatherDisplay:10.37,2013-02-27 19:19:00,
2013-02-27 13:24:00,54.0,21.6,29.37,NW,315,10.4,10.7,28,0.00,CLR,,0.00,WeatherDisplay:10.37,2013-02-27 19:24:00,
2013-02-27 13:29:00,55.0,24.1,29.37,West,270,12.0,12.0,30,0.00,CLR,,0.00,WeatherDisplay:10.37,2013-02-27 19:29:00,
2013-02-27 13:34:00,55.0,23.3,29.37,WNW,292,12.7,12.7,29,0.00,CLR,,0.00,WeatherDisplay:10.37,2013-02-27 19:34:00,
2013-02-27 13:39:00,55.0,23.3,29.37,WNW,292,11.5,11.5,29,0.00,CLR,,0.00,WeatherDisplay:10.37,2013-02-27 19:39:00,
2013-02-27 13:44:00,55.0,23.3,29.38,NNW,337,13.8,13.8,29,0.00,CLR,,0.00,WeatherDisplay:10.37,2013-02-27 19:44:00,
2013-02-27 13:49:00,55.0,24.9,29.37,WNW,292,13.8,13.8,31,0.00,CLR,,0.00,WeatherDisplay:10.37,2013-02-27 19:49:00,
2013-02-27 13:54:00,55.0,24.9,29.37,West,270,11.5,11.5,31,0.00,CLR,,0.00,WeatherDisplay:10.37,2013-02-27 19:54:00,
2013-02-27 13:59:00,56.0,25.8,29.38,NW,315,12.7,12.7,31,0.00,CLR,,0.00,WeatherDisplay:10.37,2013-02-27 19:59:00,
2013-02-27 14:04:00,55.0,24.9,29.38,NE,45,11.5,11.5,31,0.00,CLR,,0.00,WeatherDisplay:10.37,2013-02-27 20:04:00,
2013-02-27 14:09:00,55.0,24.9,29.38,West,270,12.7,12.7,31,0.00,CLR,,0.00,WeatherDisplay:10.37,2013-02-27 20:09:00,
2013-02-27 14:14:00,55.0,24.1,29.38,NNW,337,17.3,17.3,30,0.00,CLR,,0.00,WeatherDisplay:10.37,2013-02-27 20:14:00,
2013-02-27 14:19:00,55.0,24.9,29.37,NNW,337,11.5,11.5,31,0.00,CLR,,0.00,WeatherDisplay:10.37,2013-02-27 20:19:00,
2013-02-27 14:24:00,56.0,27.3,29.38,NW,315,10.4,10.4,33,0.00,CLR,,0.00,WeatherDisplay:10.37,2013-02-27 20:24:00,
2013-02-27 14:29:00,56.0,27.3,29.38,NW,315,12.0,12.0,33,0.00,CLR,,0.00,WeatherDisplay:10.37,2013-02-27 20:29:00,
2013-02-27 14:34:00,55.0,26.4,29.38,WSW,247,11.5,11.5,33,0.00,CLR,,0.00,WeatherDisplay:10.37,2013-02-27 20:34:00,
2013-02-27 14:39:00,56.0,27.3,29.38,WNW,292,23.0,23.0,33,0.00,CLR,,0.00,WeatherDisplay:10.37,2013-02-27 20:39:00,
2013-02-27 14:44:00,56.0,28.0,29.38,West,270,17.3,17.3,34,0.00,CLR,,0.00,WeatherDisplay:10.37,2013-02-27 20:44:00,
2013-02-27 14:49:00,55.0,27.1,29.38,NNW,337,12.0,12.0,34,0.00,CLR,,0.00,WeatherDisplay:10.37,2013-02-27 20:49:00,
2013-02-27 14:54:00,55.0,27.1,29.38,NW,315,13.8,13.8,34,0.00,CLR,,0.00,WeatherDisplay:10.37,2013-02-27 20:54:00,
2013-02-27 14:59:00,55.0,27.1,29.39,NNW,337,12.7,12.7,34,0.00,CLR,,0.00,WeatherDisplay:10.37,2013-02-27 20:59:00,
2013-02-27 15:04:00,55.0,27.8,29.38,NNW,337,15.0,15.0,35,0.00,CLR,,0.00,WeatherDisplay:10.37,2013-02-27 21:04:00,
2013-02-27 15:09:00,55.0,27.1,29.38,West,270,15.0,15.0,34,0.00,CLR,,0.00,WeatherDisplay:10.37,2013-02-27 21:09:00,
2013-02-27 15:14:00,55.0,27.1,29.38,NW,315,16.1,16.1,34,0.00,CLR,,0.00,WeatherDisplay:10.37,2013-02-27 21:14:00,
2013-02-27 15:19:00,55.0,27.1,29.39,West,270,15.0,15.0,34,0.00,CLR,,0.00,WeatherDisplay:10.37,2013-02-27 21:19:00,
2013-02-27 15:24:00,55.0,27.1,29.38,NNW,337,11.5,11.5,34,0.00,CLR,,0.00,WeatherDisplay:10.37,2013-02-27 21:24:00,
2013-02-27 15:29:00,54.0,26.2,29.39,NW,315,17.3,17.3,34,0.00,CLR,,0.00,WeatherDisplay:10.37,2013-02-27 21:29:00,
2013-02-27 15:34:00,54.0,26.2,29.38,WNW,292,16.1,16.1,34,0.00,CLR,,0.00,WeatherDisplay:10.37,2013-02-27 21:34:00,
2013-02-27 15:39:00,55.0,26.4,29.38,NW,315,11.5,11.5,33,0.00,CLR,,0.00,WeatherDisplay:10.37,2013-02-27 21:39:00,
2013-02-27 15:44:00,55.0,26.4,29.37,West,270,20.7,20.7,33,0.00,CLR,,0.00,WeatherDisplay:10.37,2013-02-27 21:44:00,
2013-02-27 15:49:00,55.0,26.4,29.38,NW,315,18.4,18.4,33,0.00,CLR,,0.00,WeatherDisplay:10.37,2013-02-27 21:49:00,
2013-02-27 15:54:00,55.0,25.6,29.38,West,270,16.1,16.1,32,0.00,CLR,,0.00,WeatherDisplay:10.37,2013-02-27 21:54:00,
2013-02-27 15:59:00,55.0,26.4,29.38,NW,315,15.0,15.0,33,0.00,CLR,,0.00,WeatherDisplay:10.37,2013-02-27 21:59:00,
2013-02-27 16:04:00,55.0,26.4,29.38,WNW,292,12.7,12.7,33,0.00,CLR,,0.00,WeatherDisplay:10.37,2013-02-27 22:04:00,
2013-02-27 16:09:00,55.0,24.9,29.38,West,270,12.7,12.7,31,0.00,CLR,,0.00,WeatherDisplay:10.37,2013-02-27 22:09:00,
2013-02-27 16:14:00,55.0,24.9,29.38,West,270,10.4,10.4,31,0.00,CLR,,0.00,WeatherDisplay:10.37,2013-02-27 22:14:00,
2013-02-27 16:19:00,55.0,24.9,29.38,West,270,18.0,18.0,31,0.00,CLR,,0.00,WeatherDisplay:10.37,2013-02-27 22:19:00,
2013-02-27 16:24:00,55.0,23.3,29.38,NNW,337,12.7,12.7,29,0.00,CLR,,0.00,WeatherDisplay:10.37,2013-02-27 22:24:00,
2013-02-27 16:30:00,55.0,23.3,29.38,WNW,292,10.4,10.4,29,0.00,CLR,,0.00,WeatherDisplay:10.37,2013-02-27 22:30:00,
2013-02-27 16:35:00,55.0,21.6,29.38,WNW,292,12.7,12.7,27,0.00,CLR,,0.00,WeatherDisplay:10.37,2013-02-27 22:35:00,
2013-02-27 16:40:00,56.0,23.3,29.38,West,270,12.0,12.0,28,0.00,CLR,,0.00,WeatherDisplay:10.37,2013-02-27 22:40:00,
2013-02-27 16:45:00,55.0,21.6,29.38,West,270,13.8,13.8,27,0.00,CLR,,0.00,WeatherDisplay:10.37,2013-02-27 22:45:00,
2013-02-27 16:50:00,55.0,20.7,29.39,NW,315,15.0,15.0,26,0.00,CLR,,0.00,WeatherDisplay:10.37,2013-02-27 22:50:00,
2013-02-27 16:55:00,55.0,18.8,29.38,North,360,12.7,12.7,24,0.00,CLR,,0.00,WeatherDisplay:10.37,2013-02-27 22:55:00,
2013-02-27 17:00:00,55.0,19.8,29.38,West,270,12.7,12.7,25,0.00,CLR,,0.00,WeatherDisplay:10.37,2013-02-27 23:00:00,
2013-02-27 17:05:00,55.0,18.8,29.39,NW,315,15.0,15.0,24,0.00,CLR,,0.00,WeatherDisplay:10.37,2013-02-27 23:05:00,
2013-02-27 17:10:00,55.0,19.8,29.39,NNW,337,13.0,13.0,25,0.00,CLR,,0.00,WeatherDisplay:10.37,2013-02-27 23:10:00,
2013-02-27 17:15:00,55.0,20.7,29.39,WNW,292,12.0,12.0,26,0.00,CLR,,0.00,WeatherDisplay:10.37,2013-02-27 23:15:00,
2013-02-27 17:20:00,55.0,22.4,29.39,West,270,13.8,13.8,28,0.00,CLR,,0.00,WeatherDisplay:10.37,2013-02-27 23:20:00,
2013-02-27 17:25:00,54.0,21.6,29.38,WNW,292,12.7,12.7,28,0.00,CLR,,0.00,WeatherDisplay:10.37,2013-02-27 23:25:00,
2013-02-27 17:30:00,54.0,20.7,29.38,NW,315,12.7,13.5,27,0.00,CLR,,0.00,WeatherDisplay:10.37,2013-02-27 23:30:00,
2013-02-27 17:35:00,54.0,20.7,29.39,NW,315,11.5,11.5,27,0.00,CLR,,0.00,WeatherDisplay:10.37,2013-02-27 23:35:00,
2013-02-27 17:40:00,54.0,20.7,29.38,WNW,292,11.5,11.5,27,0.00,CLR,,0.00,WeatherDisplay:10.37,2013-02-27 23:40:00,
2013-02-27 17:45:00,53.0,20.7,29.38,NW,315,12.0,12.0,28,0.00,CLR,,0.00,WeatherDisplay:10.37,2013-02-27 23:45:00,
2013-02-27 17:50:00,53.0,21.6,29.38,NW,315,10.4,10.4,29,0.00,CLR,,0.00,WeatherDisplay:10.37,2013-02-27 23:50:00,
2013-02-27 17:55:00,53.0,20.7,29.38,WNW,292,11.5,11.5,28,0.00,CLR,,0.00,WeatherDisplay:10.37,2013-02-27 23:55:00,
2013-02-27 18:00:00,52.0,19.9,29.39,WNW,292,10.4,10.4,28,0.00,CLR,,0.00,WeatherDisplay:10.37,2013-02-28 00:00:00,
2013-02-27 18:05:00,52.0,20.7,29.39,WNW,292,10.4,10.4,29,0.00,CLR,,0.00,WeatherDisplay:10.37,2013-02-28 00:05:00,
2013-02-27 18:10:00,52.0,19.9,29.38,NW,315,12.7,12.7,28,0.00,CLR,,0.00,WeatherDisplay:10.37,2013-02-28 00:10:00,
2013-02-27 18:15:00,51.0,19.8,29.39,WNW,292,8.1,8.1,29,0.00,CLR,,0.00,WeatherDisplay:10.37,2013-02-28 00:15:00,
2013-02-27 18:20:00,51.0,19.8,29.39,NW,315,8.1,8.1,29,0.00,CLR,,0.00,WeatherDisplay:10.37,2013-02-28 00:20:00,
2013-02-27 18:25:00,51.0,19.0,29.39,WNW,292,9.2,9.2,28,0.00,CLR,,0.00,WeatherDisplay:10.37,2013-02-28 00:25:00,
2013-02-27 18:30:00,51.0,19.0,29.39,NW,315,12.7,12.7,28,0.00,CLR,,0.00,WeatherDisplay:10.37,2013-02-28 00:30:00,
2013-02-27 18:35:00,50.0,18.9,29.39,NNE,22,11.5,11.5,29,0.00,CLR,,0.00,WeatherDisplay:10.37,2013-02-28 00:35:00,
2013-02-27 18:40:00,50.0,19.7,29.39,WNW,292,5.0,6.3,30,0.00,CLR,,0.00,WeatherDisplay:10.37,2013-02-28 00:40:00,
2013-02-27 18:45:00,49.0,19.6,29.39,West,270,8.0,8.0,31,0.00,CLR,,0.00,WeatherDisplay:10.37,2013-02-28 00:45:00,
2013-02-27 18:50:00,49.0,20.4,29.39,WSW,247,9.2,9.2,32,0.00,CLR,,0.00,WeatherDisplay:10.37,2013-02-28 00:50:00,
2013-02-27 18:55:00,49.0,20.4,29.39,WNW,292,11.5,11.5,32,0.00,CLR,,0.00,WeatherDisplay:10.37,2013-02-28 00:55:00,
2013-02-27 19:00:00,49.0,20.4,29.39,NW,315,9.2,9.2,32,0.00,CLR,,0.00,WeatherDisplay:10.37,2013-02-28 01:00:00,
2013-02-27 19:05:00,49.0,20.4,29.39,WNW,292,6.9,6.9,32,0.00,CLR,,0.00,WeatherDisplay:10.37,2013-02-28 01:05:00,
2013-02-27 19:10:00,48.0,20.2,29.39,WNW,292,8.1,8.1,33,0.00,CLR,,0.00,WeatherDisplay:10.37,2013-02-28 01:10:00,
2013-02-27 19:15:00,48.0,20.2,29.39,WNW,292,5.0,5.0,33,0.00,CLR,,0.00,WeatherDisplay:10.37,2013-02-28 01:15:00,
2013-02-27 19:20:00,48.0,20.2,29.39,NW,315,7.0,7.0,33,0.00,CLR,,0.00,WeatherDisplay:10.37,2013-02-28 01:20:00,
2013-02-27 19:25:00,48.0,20.2,29.40,WNW,292,9.2,9.2,33,0.00,CLR,,0.00,WeatherDisplay:10.37,2013-02-28 01:25:00,
2013-02-27 19:30:00,48.0,20.2,29.40,NNW,337,11.5,11.5,33,0.00,CLR,,0.00,WeatherDisplay:10.37,2013-02-28 01:30:00,
2013-02-27 19:35:00,48.0,20.2,29.40,WNW,292,10.4,10.4,33,0.00,CLR,,0.00,WeatherDisplay:10.37,2013-02-28 01:35:00,
2013-02-27 19:40:00,48.0,21.6,29.40,WNW,292,8.1,8.1,35,0.00,CLR,,0.00,WeatherDisplay:10.37,2013-02-28 01:40:00,
2013-02-27 19:45:00,47.0,20.7,29.41,WNW,292,8.1,8.1,35,0.00,CLR,,0.00,WeatherDisplay:10.37,2013-02-28 01:45:00,
2013-02-27 19:50:00,48.0,21.6,29.41,WNW,292,13.0,13.0,35,0.00,CLR,,0.00,WeatherDisplay:10.37,2013-02-28 01:50:00,
2013-02-27 19:55:00,48.0,20.9,29.41,NW,315,16.1,16.1,34,0.00,CLR,,0.00,WeatherDisplay:10.37,2013-02-28 01:55:00,
2013-02-27 20:00:00,47.0,20.7,29.41,NW,315,12.7,12.7,35,0.00,CLR,,0.00,WeatherDisplay:10.37,2013-02-28 02:00:00,
2013-02-27 20:05:00,47.0,21.4,29.41,WNW,292,13.0,13.0,36,0.00,CLR,,0.00,WeatherDisplay:10.37,2013-02-28 02:05:00,
2013-02-27 20:10:00,47.0,22.0,29.41,WNW,292,9.2,9.2,37,0.00,CLR,,0.00,WeatherDisplay:10.37,2013-02-28 02:10:00,
2013-02-27 20:15:00,47.0,22.0,29.41,WNW,292,9.2,9.2,37,0.00,CLR,,0.00,WeatherDisplay:10.37,2013-02-28 02:15:00,
2013-02-27 20:20:00,46.0,21.1,29.41,NW,315,16.1,16.1,37,0.00,CLR,,0.00,WeatherDisplay:10.37,2013-02-28 02:20:00,
2013-02-27 20:25:00,46.0,21.1,29.42,NW,315,13.8,13.8,37,0.00,CLR,,0.00,WeatherDisplay:10.37,2013-02-28 02:25:00,
2013-02-27 20:30:00,46.0,21.8,29.42,NW,315,16.1,16.1,38,0.00,CLR,,0.00,WeatherDisplay:10.37,2013-02-28 02:30:00,
2013-02-27 20:35:00,46.0,22.4,29.43,NNW,337,13.0,13.0,39,0.00,CLR,,0.00,WeatherDisplay:10.37,2013-02-28 02:35:00,
2013-02-27 20:40:00,45.0,22.1,29.43,NW,315,16.1,16.1,40,0.00,CLR,,0.00,WeatherDisplay:10.37,2013-02-28 02:40:00,
2013-02-27 20:45:00,45.0,22.7,29.43,NNW,337,10.4,10.4,41,0.00,CLR,,0.00,WeatherDisplay:10.37,2013-02-28 02:45:00,
2013-02-27 20:50:00,45.0,23.3,29.42,NW,315,11.5,11.5,42,0.00,CLR,,0.00,WeatherDisplay:10.37,2013-02-28 02:50:00,
2013-02-27 20:55:00,44.0,22.9,29.43,NNW,337,11.5,11.5,43,0.00,CLR,,0.00,WeatherDisplay:10.37,2013-02-28 02:55:00,
2013-02-27 21:00:00,44.0,22.9,29.43,NW,315,10.4,10.4,43,0.00,CLR,,0.00,WeatherDisplay:10.37,2013-02-28 03:00:00,
2013-02-27 21:05:00,44.0,24.0,29.43,NW,315,11.0,11.0,45,0.00,CLR,,0.00,WeatherDisplay:10.37,2013-02-28 03:05:00,
2013-02-27 21:10:00,44.0,24.0,29.43,NW,315,8.0,8.0,45,0.00,CLR,,0.00,WeatherDisplay:10.37,2013-02-28 03:10:00,
2013-02-27 21:15:00,44.0,24.5,29.43,West,270,9.2,9.2,46,0.00,CLR,,0.00,WeatherDisplay:10.37,2013-02-28 03:15:00,
2013-02-27 21:20:00,43.0,24.1,29.43,WNW,292,11.5,11.5,47,0.00,CLR,,0.00,WeatherDisplay:10.37,2013-02-28 03:20:00,
2013-02-27 21:25:00,44.0,24.5,29.44,North,360,11.5,11.5,46,0.00,CLR,,0.00,WeatherDisplay:10.37,2013-02-28 03:25:00,
2013-02-27 21:30:00,43.0,24.1,29.44,NW,315,8.1,8.1,47,0.00,CLR,,0.00,WeatherDisplay:10.37,2013-02-28 03:30:00,
2013-02-27 21:35:00,43.0,24.1,29.43,WNW,292,11.5,11.5,47,0.00,CLR,,0.00,WeatherDisplay:10.37,2013-02-28 03:35:00,
2013-02-27 21:40:00,43.0,24.1,29.43,NW,315,15.0,15.0,47,0.00,CLR,,0.00,WeatherDisplay:10.37,2013-02-28 03:40:00,
2013-02-27 21:46:00,43.0,24.1,29.44,North,360,10.4,10.4,47,0.00,CLR,,0.00,WeatherDisplay:10.37,2013-02-28 03:46:00,
2013-02-27 21:51:00,43.0,24.1,29.44,NW,315,11.5,11.5,47,0.00,CLR,,0.00,WeatherDisplay:10.37,2013-02-28 03:51:00,
2013-02-27 21:56:00,43.0,24.1,29.44,NW,315,17.3,17.3,47,0.00,CLR,,0.00,WeatherDisplay:10.37,2013-02-28 03:56:00,
2013-02-27 22:01:00,42.0,23.7,29.44,WNW,292,16.0,16.0,48,0.00,CLR,,0.00,WeatherDisplay:10.37,2013-02-28 04:01:00,
2013-02-27 22:06:00,42.0,24.2,29.44,NNW,337,15.0,15.0,49,0.00,CLR,,0.00,WeatherDisplay:10.37,2013-02-28 04:06:00,
2013-02-27 22:11:00,42.0,24.7,29.44,NW,315,12.0,12.0,50,0.00,CLR,,0.00,WeatherDisplay:10.37,2013-02-28 04:11:00,
2013-02-27 22:16:00,42.0,25.2,29.44,WNW,292,13.8,13.8,51,0.00,CLR,,0.00,WeatherDisplay:10.37,2013-02-28 04:16:00,
2013-02-27 22:21:00,42.0,25.2,29.44,West,270,11.5,11.5,51,0.00,CLR,,0.00,WeatherDisplay:10.37,2013-02-28 04:21:00,
2013-02-27 22:26:00,42.0,25.6,29.44,West,270,10.4,10.4,52,0.00,CLR,,0.00,WeatherDisplay:10.37,2013-02-28 04:26:00,
2013-02-27 22:31:00,41.0,25.2,29.45,North,360,12.0,12.0,53,0.00,CLR,,0.00,WeatherDisplay:10.37,2013-02-28 04:31:00,
2013-02-27 22:36:00,41.0,25.6,29.45,NW,315,10.4,10.4,54,0.00,CLR,,0.00,WeatherDisplay:10.37,2013-02-28 04:36:00,
2013-02-27 22:41:00,41.0,25.6,29.45,NW,315,9.2,9.2,54,0.00,CLR,,0.00,WeatherDisplay:10.37,2013-02-28 04:41:00,
2013-02-27 22:46:00,41.0,25.6,29.45,NW,315,9.2,9.2,54,0.00,CLR,,0.00,WeatherDisplay:10.37,2013-02-28 04:46:00,
2013-02-27 22:51:00,41.0,26.1,29.45,NNW,337,10.4,10.4,55,0.00,CLR,,0.00,WeatherDisplay:10.37,2013-02-28 04:51:00,
2013-02-27 22:56:00,41.0,26.5,29.45,NW,315,12.0,12.0,56,0.00,CLR,,0.00,WeatherDisplay:10.37,2013-02-28 04:56:00,
2013-02-27 23:00:00,40.0,25.6,29.45,NW,315,9.2,9.2,56,0.00,CLR,,0.00,WeatherDisplay:10.37,2013-02-28 05:00:00,
2013-02-27 23:05:00,40.0,25.6,29.45,NW,315,12.0,12.0,56,0.00,CLR,,0.00,WeatherDisplay:10.37,2013-02-28 05:05:00,
2013-02-27 23:10:00,40.0,26.0,29.45,NW,315,15.0,15.0,57,0.00,CLR,,0.00,WeatherDisplay:10.37,2013-02-28 05:10:00,
2013-02-27 23:15:00,40.0,26.0,29.45,WNW,292,12.0,12.0,57,0.00,CLR,,0.00,WeatherDisplay:10.37,2013-02-28 05:15:00,
2013-02-27 23:20:00,40.0,26.0,29.45,WNW,292,10.4,10.4,57,0.00,CLR,,0.00,WeatherDisplay:10.37,2013-02-28 05:20:00,
2013-02-27 23:25:00,40.0,26.4,29.45,NW,315,11.5,11.5,58,0.00,CLR,,0.00,WeatherDisplay:10.37,2013-02-28 05:25:00,
2013-02-27 23:30:00,40.0,26.8,29.45,NW,315,11.5,11.5,59,0.00,CLR,,0.00,WeatherDisplay:10.37,2013-02-28 05:30:00,
2013-02-27 23:35:00,40.0,26.4,29.45,West,270,15.0,15.0,58,0.00,CLR,,0.00,WeatherDisplay:10.37,2013-02-28 05:35:00,
2013-02-27 23:40:00,40.0,26.8,29.45,WNW,292,10.4,10.4,59,0.00,CLR,,0.00,WeatherDisplay:10.37,2013-02-28 05:40:00,
2013-02-27 23:45:00,40.0,26.8,29.45,NNW,337,13.8,13.8,59,0.00,CLR,,0.00,WeatherDisplay:10.37,2013-02-28 05:45:00,
2013-02-27 23:50:00,40.0,27.2,29.45,NNW,337,10.4,10.4,60,0.00,CLR,,0.00,WeatherDisplay:10.37,2013-02-28 05:50:00,
2013-02-27 23:55:00,39.0,26.7,29.45,NW,315,7.0,7.0,61,0.00,CLR,,0.00,WeatherDisplay:10.37,2013-02-28 05:55:00,